Weather at Labuan Airport

Public forecast

Using degrees Celsius for public forecast. Weather courtesy of forecast.io.

Current aviation weather report (METAR) for Labuan Airport

Retrieved 2022/01/19 23:00 UTC (25 minutes ago):

WBKL 192300Z VRB06KT 9999 FEW013 26/24 Q1008

Aviation forecast (TAF) for Labuan Airport

Retrieved 2022/01/19 18:00 UTC (5 hours ago):

TAF WBKL 191700Z 1918/2018 05008KT 9999 FEW014 TEMPO 1920/1923 5000 TSRA FEW010 FEW016CB SCT030